Terminal Aerodrome Forecast
Issued by NWS Cleveland, OH

Home | Current Version | Previous Version | Graphics & Text | Print | Product List | Glossary On
Versions: 1 2 3 4 5 6 7 8 9 10 11 12 13 14 15 16 17
887
FTUS41 KCLE 021134
TAFYNG
TAF
KYNG 021134Z 0212/0312 25010KT P6SM OVC020
      TEMPO 0212/0215 SCT020 OVC050
     FM021600 27012G20KT P6SM VCSH BKN025
     FM030400 27008KT P6SM BKN012=

USA.gov is the U.S. government's official web portal to all federal, state and local government web resources and services.